Time;durP1;ratioP1;P1;durP2;ratioP2;P2;SDS_P1;SDS_P2;PMS_P1;PMS_P2;Temp;Humidity;BMP_temperature;BMP_pressure;BME280_temperature;BME280_humidity;BME280_pressure;Samples;Min_cycle;Max_cycle;Signal;HPM_P1;HPM_P2
2021/06/20 00:00:35;;;;;;;7.80;1.80;;;;;;;21.84;60.89;100816.61;1786803;80;21378;-58
2021/06/20 00:03:40;;;;;;;5.95;2.20;;;;;;;21.85;60.87;100813.58;1787235;80;21851;-58
2021/06/20 00:06:47;;;;;;;6.53;1.62;;;;;;;21.87;60.52;100818.91;1787201;80;21195;-58
2021/06/20 00:09:52;;;;;;;6.75;2.47;;;;;;;21.89;60.50;100820.92;1787152;80;21365;-57
2021/06/20 00:12:58;;;;;;;4.70;1.57;;;;;;;21.89;60.47;100816.21;1786990;80;21247;-58
2021/06/20 00:16:05;;;;;;;7.15;2.12;;;;;;;21.88;60.29;100817.28;1786904;80;21235;-56
2021/06/20 00:19:12;;;;;;;12.37;2.10;;;;;;;21.87;60.07;100803.58;1786089;80;21429;-58
2021/06/20 00:22:17;;;;;;;6.95;1.77;;;;;;;21.82;59.99;100800.66;1787148;80;21836;-57
2021/06/20 00:25:24;;;;;;;7.67;1.98;;;;;;;21.79;59.90;100802.53;1787022;80;21409;-57
2021/06/20 00:28:29;;;;;;;4.47;1.75;;;;;;;21.78;59.87;100800.84;1771497;80;21228;-59
2021/06/20 00:31:34;;;;;;;10.50;1.90;;;;;;;21.76;59.59;100800.22;1767636;81;21371;-57
2021/06/20 00:34:40;;;;;;;6.40;2.05;;;;;;;21.72;59.36;100800.38;1767498;81;21220;-60
2021/06/20 00:37:45;;;;;;;9.83;2.47;;;;;;;21.67;59.71;100790.48;1767546;81;21343;-56
2021/06/20 00:40:51;;;;;;;6.17;2.08;;;;;;;21.64;59.78;100792.35;1767667;81;21370;-56
2021/06/20 00:43:57;;;;;;;12.73;2.20;;;;;;;21.58;59.88;100788.56;1761825;81;21212;-56
2021/06/20 00:47:02;;;;;;;9.40;1.85;;;;;;;21.55;59.91;100786.25;1703461;84;21390;-56
2021/06/20 00:50:08;;;;;;;6.95;1.70;;;;;;;21.49;60.34;100787.20;1702941;84;21359;-58
2021/06/20 00:53:13;;;;;;;4.62;1.72;;;;;;;21.45;60.39;100783.22;1702399;84;21394;-58
2021/06/20 00:56:19;;;;;;;8.95;2.10;;;;;;;21.42;60.39;100791.19;1702719;84;21362;-58
2021/06/20 00:59:25;;;;;;;7.62;2.10;;;;;;;21.39;60.54;100781.91;1702865;84;21355;-58
2021/06/20 01:02:31;;;;;;;7.15;1.87;;;;;;;21.36;60.51;100792.14;1703868;84;21351;-57
2021/06/20 01:05:36;;;;;;;7.40;2.40;;;;;;;21.32;60.34;100787.58;1703261;84;21422;-59
2021/06/20 01:08:42;;;;;;;7.05;2.87;;;;;;;21.29;60.40;100789.44;1703837;84;21347;-58
2021/06/20 01:11:47;;;;;;;12.20;3.02;;;;;;;21.26;60.37;100792.70;1703090;84;21354;-58
2021/06/20 01:14:52;;;;;;;5.62;2.15;;;;;;;21.25;60.42;100793.77;1703234;84;21978;-58
2021/06/20 01:17:56;;;;;;;7.50;1.90;;;;;;;21.25;60.08;100794.33;1702816;84;21386;-59
2021/06/20 01:21:01;;;;;;;4.22;1.90;;;;;;;21.23;60.12;100803.45;1687092;84;21251;-57
2021/06/20 01:24:07;;;;;;;5.08;1.70;;;;;;;21.20;60.02;100797.80;1702068;84;21217;-58
2021/06/20 01:27:15;;;;;;;6.90;1.50;;;;;;;21.19;59.85;100803.06;1702864;84;21366;-58
2021/06/20 01:30:26;;;;;;;5.92;1.60;;;;;;;21.19;59.90;100803.60;1702850;84;21240;-58
2021/06/20 01:33:30;;;;;;;5.87;1.75;;;;;;;21.19;59.58;100796.64;1702583;84;21402;-57
2021/06/20 01:36:38;;;;;;;6.05;1.80;;;;;;;21.20;59.48;100794.19;1702780;84;21244;-57
2021/06/20 01:39:45;;;;;;;6.05;2.08;;;;;;;21.20;59.26;100795.01;1703716;84;21260;-57
2021/06/20 01:42:51;;;;;;;7.00;1.70;;;;;;;21.21;59.13;100792.55;1702852;84;21268;-59
2021/06/20 01:45:57;;;;;;;6.70;2.67;;;;;;;21.21;58.95;100790.30;1702816;84;21394;-58
2021/06/20 01:49:03;;;;;;;8.85;3.10;;;;;;;21.21;58.67;100788.38;1702746;84;21200;-59
2021/06/20 01:52:11;;;;;;;6.28;2.52;;;;;;;21.19;59.07;100793.32;1702709;84;21292;-59
2021/06/20 01:55:17;;;;;;;7.05;1.92;;;;;;;21.20;58.80;100785.27;1702645;84;21276;-60
2021/06/20 01:58:24;;;;;;;4.90;1.50;;;;;;;21.21;58.64;100787.52;1703092;84;21334;-59
2021/06/20 02:01:30;;;;;;;6.62;1.90;;;;;;;21.19;58.82;100787.75;1702763;84;21264;-58
2021/06/20 02:04:35;;;;;;;2.47;1.32;;;;;;;21.17;58.73;100786.30;1702737;84;21363;-58
2021/06/20 02:07:41;;;;;;;8.95;2.05;;;;;;;21.16;58.77;100783.19;1703304;84;21378;-56
2021/06/20 02:10:41;;;;;;;10.10;1.80;;;;;;;21.16;58.67;100789.61;1702982;84;21386;-58
2021/06/20 02:13:46;;;;;;;4.67;1.50;;;;;;;21.14;58.80;100782.03;1702832;84;21363;-58
2021/06/20 02:16:51;;;;;;;4.12;1.42;;;;;;;21.15;59.04;100789.32;1702815;84;21580;-58
2021/06/20 02:19:57;;;;;;;13.62;2.12;;;;;;;21.15;58.88;100788.46;1703426;84;21263;-58
2021/06/20 02:23:02;;;;;;;4.65;1.77;;;;;;;21.18;59.08;100790.77;1703195;84;21271;-58
2021/06/20 02:26:08;;;;;;;6.65;1.87;;;;;;;21.17;58.83;100784.34;1702764;84;21371;-58
2021/06/20 02:29:13;;;;;;;7.62;1.62;;;;;;;21.18;58.71;100781.02;1703637;82;21366;-58
2021/06/20 02:32:20;;;;;;;7.05;2.00;;;;;;;21.19;58.67;100785.50;1718330;83;21369;-58
2021/06/20 02:35:27;;;;;;;2.77;1.80;;;;;;;21.22;58.68;100783.63;1718357;83;21235;-57
2021/06/20 02:38:33;;;;;;;6.30;1.95;;;;;;;21.26;58.74;100784.88;1718160;83;21200;-57
2021/06/20 02:41:38;;;;;;;6.22;2.40;;;;;;;21.33;58.26;100784.23;1718254;83;21282;-58
2021/06/20 02:44:43;;;;;;;8.38;2.20;;;;;;;21.35;57.68;100779.27;1718354;83;21449;-58
2021/06/20 02:47:48;;;;;;;9.48;2.30;;;;;;;21.37;57.84;100777.11;1718221;83;21331;-59
2021/06/20 02:50:55;;;;;;;7.12;2.30;;;;;;;21.40;57.09;100767.75;1718091;81;21243;-60
2021/06/20 02:54:00;;;;;;;16.40;3.83;;;;;;;21.45;57.04;100761.46;1718179;83;21259;-60
2021/06/20 02:57:07;;;;;;;10.20;4.53;;;;;;;21.45;56.68;100758.14;1718139;83;21271;-57
2021/06/20 03:00:14;;;;;;;7.03;3.70;;;;;;;21.48;56.52;100764.62;1718237;83;21350;-57
2021/06/20 03:03:19;;;;;;;7.67;4.05;;;;;;;21.51;56.32;100759.11;1718343;83;21811;-58
2021/06/20 03:06:25;;;;;;;13.55;4.40;;;;;;;21.53;56.08;100763.34;1718341;83;21501;-58
2021/06/20 03:09:31;;;;;;;10.93;4.20;;;;;;;21.54;56.08;100758.63;1718324;83;21298;-58
2021/06/20 03:12:36;;;;;;;8.50;3.70;;;;;;;21.54;55.90;100758.63;1718353;83;21409;-57
2021/06/20 03:15:44;;;;;;;9.05;3.70;;;;;;;21.55;56.08;100766.75;1718204;83;21271;-58
2021/06/20 03:18:49;;;;;;;12.33;3.27;;;;;;;21.54;55.86;100767.84;1718279;83;21895;-58
2021/06/20 03:21:59;;;;;;;6.97;2.60;;;;;;;21.53;55.80;100757.77;1718191;83;21204;-58
2021/06/20 03:25:03;;;;;;;11.00;2.90;;;;;;;21.52;55.73;100756.62;1718372;83;21326;-58
2021/06/20 03:28:08;;;;;;;6.72;3.08;;;;;;;21.51;55.65;100749.36;1718340;83;21757;-57
2021/06/20 03:31:17;;;;;;;10.25;2.10;;;;;;;21.47;55.92;100733.66;1713490;80;21268;-58
2021/06/20 03:34:21;;;;;;;10.95;1.80;;;;;;;21.41;56.09;100730.44;1703093;84;21245;-58
2021/06/20 03:37:27;;;;;;;13.15;2.12;;;;;;;21.35;56.09;100727.21;1702850;84;21378;-58
2021/06/20 03:40:34;;;;;;;11.40;1.70;;;;;;;21.29;56.17;100729.56;1703007;84;21397;-57
2021/06/20 03:43:41;;;;;;;4.72;1.72;;;;;;;21.24;56.51;100728.02;1702984;84;21390;-57
2021/06/20 03:46:47;;;;;;;5.83;1.65;;;;;;;21.24;56.80;100742.48;1702848;84;21362;-57
2021/06/20 03:49:53;;;;;;;7.00;1.30;;;;;;;21.26;56.61;100741.17;1702902;84;21308;-58
2021/06/20 03:53:00;;;;;;;7.45;1.50;;;;;;;21.28;56.38;100733.98;1702916;84;21355;-58
2021/06/20 03:56:05;;;;;;;9.53;1.70;;;;;;;21.29;56.21;100740.70;1702961;84;21277;-58
2021/06/20 03:59:11;;;;;;;3.90;1.65;;;;;;;21.32;56.37;100743.55;1702273;84;21351;-58
2021/06/20 04:02:16;;;;;;;10.78;1.60;;;;;;;21.38;56.49;100735.63;1703074;84;21380;-58
2021/06/20 04:05:22;;;;;;;13.00;1.82;;;;;;;21.42;56.27;100727.94;1703122;84;21378;-58
2021/06/20 04:08:28;;;;;;;15.18;2.72;;;;;;;21.46;56.38;100749.22;1702682;84;21247;-59
2021/06/20 04:11:34;;;;;;;8.75;2.42;;;;;;;21.46;56.07;100738.94;1702362;84;21998;-59
2021/06/20 04:14:41;;;;;;;7.83;2.55;;;;;;;21.51;56.47;100744.64;1703274;84;21390;-60
2021/06/20 04:17:46;;;;;;;6.37;2.27;;;;;;;21.55;57.24;100731.92;1703108;84;21351;-59
2021/06/20 04:20:52;;;;;;;9.43;1.52;;;;;;;21.60;57.44;100736.77;1702618;84;21378;-59
2021/06/20 04:23:57;;;;;;;11.68;1.57;;;;;;;21.64;57.40;100735.22;1703112;84;21965;-59
2021/06/20 04:27:03;;;;;;;4.83;1.60;;;;;;;21.68;57.26;100740.08;1703464;84;21418;-59
2021/06/20 04:30:11;;;;;;;6.35;1.50;;;;;;;21.76;56.98;100739.76;1702488;84;21462;-58
2021/06/20 04:33:16;;;;;;;5.17;1.52;;;;;;;21.85;57.24;100743.88;1718126;82;21460;-58
2021/06/20 04:36:21;;;;;;;6.92;1.57;;;;;;;21.94;56.88;100750.83;1725994;83;21387;-58
2021/06/20 04:39:28;;;;;;;7.92;1.62;;;;;;;22.03;56.66;100754.09;1726124;83;21357;-57
2021/06/20 04:42:35;;;;;;;7.40;1.37;;;;;;;22.09;56.17;100751.19;1726125;83;21393;-57
2021/06/20 04:45:41;;;;;;;4.72;1.60;;;;;;;22.15;56.46;100753.00;1726008;83;21239;-58
2021/06/20 04:48:48;;;;;;;5.05;1.60;;;;;;;22.24;56.10;100735.36;1726183;83;21445;-58
2021/06/20 04:51:55;;;;;;;7.62;1.70;;;;;;;22.31;55.39;100732.45;1745164;81;21184;-58
2021/06/20 04:55:00;;;;;;;3.87;1.70;;;;;;;22.37;55.10;100727.29;1755981;81;21385;-58
2021/06/20 04:57:59;;;;;;;5.67;1.62;;;;;;;22.38;54.76;100727.05;1755940;81;21357;-58
2021/06/20 05:01:05;;;;;;;5.90;2.02;;;;;;;22.43;55.24;100734.67;1756070;81;21377;-58
2021/06/20 05:04:09;;;;;;;12.33;2.70;;;;;;;22.48;54.51;100726.42;1756095;81;21322;-58
2021/06/20 05:07:16;;;;;;;7.87;2.15;;;;;;;22.55;54.50;100722.43;1756077;81;21365;-59
2021/06/20 05:10:22;;;;;;;10.23;2.00;;;;;;;22.69;54.87;100723.02;1756584;81;21230;-57
2021/06/20 05:13:28;;;;;;;9.15;1.80;;;;;;;22.90;55.46;100715.35;1756177;81;21362;-57
2021/06/20 05:16:33;;;;;;;12.28;1.67;;;;;;;23.14;54.46;100709.98;1756025;81;21945;-58
2021/06/20 05:19:38;;;;;;;6.58;1.70;;;;;;;23.28;53.73;100712.26;1756024;81;21362;-60
2021/06/20 05:22:45;;;;;;;11.40;2.15;;;;;;;23.45;53.99;100717.89;1756139;81;21346;-58
2021/06/20 05:25:51;;;;;;;5.78;1.40;;;;;;;23.71;53.78;100721.42;1755865;81;21343;-58
2021/06/20 05:28:56;;;;;;;9.68;1.70;;;;;;;23.93;53.69;100719.55;1755893;81;21342;-59
2021/06/20 05:32:02;;;;;;;7.17;1.55;;;;;;;24.13;53.10;100719.94;1755929;81;21413;-59
2021/06/20 05:35:09;;;;;;;5.17;1.37;;;;;;;24.37;52.40;100726.99;1753997;80;21372;-59
2021/06/20 05:38:16;;;;;;;4.53;1.55;;;;;;;24.56;52.66;100731.19;1756044;81;21393;-59
2021/06/20 05:41:23;;;;;;;6.08;1.42;;;;;;;24.69;51.88;100737.84;1756021;81;21271;-59
2021/06/20 05:44:29;;;;;;;6.08;1.52;;;;;;;24.76;50.64;100732.92;1755893;81;21572;-59
2021/06/20 05:47:35;;;;;;;7.42;1.70;;;;;;;24.82;50.93;100738.87;1755998;81;21263;-59
2021/06/20 05:50:40;;;;;;;6.70;1.90;;;;;;;24.85;49.97;100739.75;1756033;81;21390;-59
2021/06/20 05:53:46;;;;;;;5.50;2.10;;;;;;;24.90;49.90;100738.41;1755994;81;21341;-59
2021/06/20 05:56:53;;;;;;;5.05;1.80;;;;;;;24.95;49.04;100741.29;1755982;81;21223;-59
2021/06/20 05:59:58;;;;;;;7.25;2.27;;;;;;;25.11;49.15;100727.45;1756012;81;21349;-59
2021/06/20 06:03:07;;;;;;;12.37;3.30;;;;;;;25.36;48.65;100736.17;1755897;81;21192;-59
2021/06/20 06:06:12;;;;;;;8.33;2.85;;;;;;;25.57;48.67;100738.94;1755366;81;21254;-58
2021/06/20 06:09:18;;;;;;;8.10;2.08;;;;;;;25.82;48.77;100734.11;1755649;81;21238;-58
2021/06/20 06:12:23;;;;;;;6.22;1.20;;;;;;;26.03;46.01;100725.64;1755688;81;21735;-57
2021/06/20 06:15:28;;;;;;;6.17;1.32;;;;;;;26.22;45.60;100735.87;1757504;81;21279;-58
2021/06/20 06:18:33;;;;;;;13.03;1.50;;;;;;;26.36;43.44;100730.94;1755631;81;21187;-59
2021/06/20 06:21:39;;;;;;;6.65;1.75;;;;;;;26.39;43.22;100736.55;1756047;81;21370;-58
2021/06/20 06:24:44;;;;;;;11.93;2.45;;;;;;;26.37;44.48;100744.39;1755946;80;21374;-58
2021/06/20 06:27:50;;;;;;;12.37;2.00;;;;;;;26.30;44.30;100740.99;1784316;80;21228;-58
2021/06/20 06:30:55;;;;;;;6.30;1.52;;;;;;;26.20;44.38;100736.70;1784830;80;21331;-59
2021/06/20 06:34:00;;;;;;;9.78;1.75;;;;;;;26.10;44.74;100740.85;1784676;80;21369;-59
2021/06/20 06:37:05;;;;;;;7.20;1.47;;;;;;;26.05;45.34;100742.21;1784747;80;21191;-58
2021/06/20 06:40:12;;;;;;;8.70;1.50;;;;;;;26.09;46.13;100741.40;1769821;80;21220;-57
2021/06/20 06:43:19;;;;;;;7.42;1.80;;;;;;;26.13;45.35;100741.72;1761217;81;21717;-58
2021/06/20 06:46:24;;;;;;;7.97;2.10;;;;;;;26.01;45.77;100743.30;1761196;81;21236;-58
2021/06/20 06:49:30;;;;;;;6.17;1.67;;;;;;;25.97;46.81;100746.30;1761061;81;21205;-57
2021/06/20 06:52:35;;;;;;;4.08;1.72;;;;;;;26.10;47.32;100743.66;1739247;81;21421;-59
2021/06/20 06:55:41;;;;;;;8.23;1.67;;;;;;;26.26;47.33;100746.84;1745911;81;21385;-58
2021/06/20 06:58:47;;;;;;;4.58;1.60;;;;;;;26.36;46.01;100752.54;1755281;81;21287;-58
2021/06/20 07:01:51;;;;;;;9.65;1.67;;;;;;;26.48;46.60;100739.98;1755556;81;21215;-58
2021/06/20 07:04:58;;;;;;;9.13;1.92;;;;;;;26.60;46.35;100741.19;1760218;80;21267;-58
2021/06/20 07:08:03;;;;;;;6.20;1.62;;;;;;;26.65;45.78;100741.25;1755578;81;21350;-58
2021/06/20 07:11:11;;;;;;;4.80;1.55;;;;;;;26.68;45.08;100732.28;1755859;81;21239;-58
2021/06/20 07:14:17;;;;;;;3.72;1.52;;;;;;;26.66;44.77;100735.05;1756002;81;21389;-58
2021/06/20 07:17:21;;;;;;;7.87;1.70;;;;;;;26.61;44.80;100733.03;1756036;81;21434;-59
2021/06/20 07:20:26;;;;;;;9.70;1.65;;;;;;;26.56;43.26;100733.58;1756059;81;21404;-58
2021/06/20 07:23:32;;;;;;;9.48;1.47;;;;;;;26.56;42.60;100733.00;1747048;81;21383;-57
2021/06/20 07:26:38;;;;;;;7.90;1.27;;;;;;;26.62;42.92;100737.55;1725575;83;21283;-60
2021/06/20 07:29:43;;;;;;;4.20;2.00;;;;;;;26.72;43.18;100744.64;1725626;83;21259;-58
2021/06/20 07:32:50;;;;;;;5.95;1.62;;;;;;;26.79;43.24;100742.45;1725536;83;21259;-58
2021/06/20 07:35:57;;;;;;;7.05;1.60;;;;;;;26.88;43.71;100745.01;1723092;80;21209;-59
2021/06/20 07:39:03;;;;;;;6.97;1.60;;;;;;;26.99;43.70;100746.75;1703227;84;21280;-59
2021/06/20 07:42:09;;;;;;;12.37;1.75;;;;;;;27.04;42.42;100748.17;1703176;84;21382;-58
2021/06/20 07:45:15;;;;;;;5.90;1.92;;;;;;;26.96;42.86;100754.33;1703656;84;21402;-58
2021/06/20 07:48:21;;;;;;;9.58;1.80;;;;;;;26.98;43.25;100749.28;1702687;84;21244;-58
2021/06/20 07:51:26;;;;;;;5.85;1.55;;;;;;;26.98;43.05;100743.66;1702739;84;21235;-57
2021/06/20 07:54:32;;;;;;;9.20;1.80;;;;;;;26.88;42.17;100747.82;1703183;84;21389;-58
2021/06/20 07:57:38;;;;;;;7.72;2.05;;;;;;;26.69;43.74;100742.38;1702554;84;21354;-57
2021/06/20 08:00:44;;;;;;;6.08;1.95;;;;;;;26.55;43.75;100738.89;1702856;84;21304;-58
2021/06/20 08:03:51;;;;;;;7.35;1.70;;;;;;;26.36;44.14;100746.38;1713909;82;21209;-57
2021/06/20 08:06:57;;;;;;;7.03;1.60;;;;;;;26.26;45.10;100748.25;1707128;84;21248;-57
2021/06/20 08:10:03;;;;;;;8.43;1.95;;;;;;;26.29;45.66;100733.70;1706953;84;21315;-59
2021/06/20 08:13:08;;;;;;;8.08;1.70;;;;;;;26.35;45.91;100736.23;1709220;83;21279;-58
2021/06/20 08:16:16;;;;;;;6.62;1.70;;;;;;;26.44;46.42;100735.19;1702327;84;21785;-56
2021/06/20 08:19:22;;;;;;;13.60;2.02;;;;;;;26.48;45.70;100734.36;1703163;84;21390;-57
2021/06/20 08:22:27;;;;;;;5.83;1.57;;;;;;;26.52;46.40;100733.27;1714255;83;21213;-58
2021/06/20 08:25:34;;;;;;;9.15;1.98;;;;;;;26.48;45.72;100723.72;1732095;82;21209;-58
2021/06/20 08:28:40;;;;;;;8.43;2.02;;;;;;;26.48;45.68;100733.55;1696607;84;21748;-58
2021/06/20 08:31:46;;;;;;;10.40;2.52;;;;;;;26.54;45.81;100729.64;1667917;84;21200;-56
2021/06/20 08:34:51;;;;;;;5.92;2.27;;;;;;;26.60;45.54;100732.76;1682581;85;21289;-59
2021/06/20 08:37:57;;;;;;;6.00;2.20;;;;;;;26.70;45.79;100737.63;1683519;81;21313;-59
2021/06/20 08:41:04;;;;;;;9.70;2.30;;;;;;;26.78;45.42;100739.36;1746872;81;21227;-58
2021/06/20 08:44:09;;;;;;;7.67;1.67;;;;;;;26.87;45.12;100736.86;1753498;80;21367;-58
2021/06/20 08:47:16;;;;;;;6.90;1.62;;;;;;;26.85;44.48;100733.47;1725525;83;21223;-57
2021/06/20 08:50:22;;;;;;;6.75;1.92;;;;;;;26.79;44.35;100739.64;1733057;82;21204;-58
2021/06/20 08:53:27;;;;;;;8.20;1.62;;;;;;;26.76;43.69;100733.71;1766864;81;21381;-58
2021/06/20 08:56:33;;;;;;;6.12;2.10;;;;;;;26.71;43.89;100735.94;1766846;81;21208;-59
2021/06/20 08:59:39;;;;;;;7.25;2.40;;;;;;;26.76;44.50;100736.52;1744459;81;21378;-58
2021/06/20 09:02:44;;;;;;;7.97;2.47;;;;;;;26.82;44.82;100732.06;1731881;81;21229;-59
2021/06/20 09:06:11;;;;;;;19.27;3.27;;;;;;;26.91;44.97;100734.63;1712428;83;21311;-58
2021/06/20 09:09:17;;;;;;;19.77;3.40;;;;;;;26.99;44.96;100726.25;1712611;84;21189;-58
2021/06/20 09:12:23;;;;;;;11.20;3.20;;;;;;;27.04;45.71;100717.81;1712501;83;21212;-58
2021/06/20 09:15:33;;;;;;;10.13;3.20;;;;;;;27.13;45.40;100722.62;1749138;80;21369;-59
2021/06/20 09:18:40;;;;;;;7.27;2.30;;;;;;;27.22;45.03;100715.36;1756567;80;21289;-58
2021/06/20 09:21:48;;;;;;;12.05;2.98;;;;;;;27.31;44.72;100712.86;1747818;82;22016;-59
2021/06/20 09:24:53;;;;;;;12.00;2.22;;;;;;;27.38;45.60;100710.09;1744228;82;21227;-58
2021/06/20 09:28:05;;;;;;;9.15;2.05;;;;;;;27.57;45.24;100714.06;1729605;80;21781;-58
2021/06/20 09:31:12;;;;;;;8.10;2.20;;;;;;;27.71;44.66;100708.16;1747032;80;21323;-59
2021/06/20 09:34:20;;;;;;;6.08;1.70;;;;;;;27.98;44.62;100698.06;1746208;82;21252;-58
2021/06/20 09:37:24;;;;;;;6.15;1.80;;;;;;;28.23;43.12;100690.12;1732578;81;21193;-59
2021/06/20 09:40:35;;;;;;;7.65;2.05;;;;;;;28.46;43.11;100679.67;1731760;81;21262;-56
2021/06/20 09:43:41;;;;;;;7.40;1.87;;;;;;;28.66;42.29;100672.58;1755743;81;21249;-57
2021/06/20 09:46:46;;;;;;;6.95;1.52;;;;;;;28.83;41.78;100666.02;1756423;81;21896;-58
2021/06/20 09:49:54;;;;;;;11.55;1.62;;;;;;;28.98;41.19;100661.17;1756384;81;21224;-57
2021/06/20 09:53:01;;;;;;;8.98;1.52;;;;;;;29.12;39.66;100661.39;1756294;81;21766;-57
2021/06/20 09:56:23;;;;;;;4.58;1.30;;;;;;;29.19;38.19;100659.11;1741912;81;21225;-58
2021/06/20 09:59:41;;;;;;;6.25;1.22;;;;;;;29.28;37.75;100650.30;1757382;81;21208;-57
2021/06/20 10:02:42;;;;;;;5.55;1.10;;;;;;;29.56;37.99;100664.22;1756988;81;21717;-59
2021/06/20 10:05:48;;;;;;;9.28;1.90;;;;;;;29.84;38.25;100674.73;1760685;81;21211;-58
2021/06/20 10:08:53;;;;;;;12.20;1.45;;;;;;;30.09;38.95;100669.70;1762628;81;21229;-58
2021/06/20 10:11:58;;;;;;;4.42;0.90;;;;;;;30.32;38.51;100666.08;1762768;81;21204;-60
2021/06/20 10:15:06;;;;;;;6.85;1.40;;;;;;;30.46;37.56;100668.46;1715064;83;21216;-58
2021/06/20 10:18:12;;;;;;;5.83;1.27;;;;;;;30.49;34.52;100657.97;1724695;82;21209;-58
2021/06/20 10:21:18;;;;;;;4.83;1.25;;;;;;;30.36;34.65;100643.17;1731748;82;21393;-58
2021/06/20 10:24:26;;;;;;;6.90;1.17;;;;;;;30.36;34.65;100643.17;1744960;82;21264;-57
2021/06/20 10:27:41;;;;;;;7.22;1.17;;;;;;;30.25;34.46;100640.19;1743402;82;21264;-59
2021/06/20 10:30:46;;;;;;;9.93;1.10;;;;;;;30.26;34.38;100634.80;1738630;80;21429;-59
2021/06/20 10:33:52;;;;;;;8.30;1.10;;;;;;;30.26;34.38;100634.80;1742127;82;21404;-57
2021/06/20 10:37:01;;;;;;;4.92;1.30;;;;;;;30.48;36.03;100639.90;1747902;82;21363;-57
2021/06/20 10:40:07;;;;;;;5.03;1.67;;;;;;;30.48;36.03;100639.90;1734243;79;21235;-59
2021/06/20 10:43:26;;;;;;;7.15;1.40;;;;;;;30.60;36.30;100634.69;1717714;83;21223;-58
2021/06/20 10:46:31;;;;;;;5.37;1.30;;;;;;;30.73;35.57;100625.48;1717821;83;21235;-58
2021/06/20 10:49:36;;;;;;;11.75;2.00;;;;;;;30.86;36.04;100630.99;1717935;83;21271;-59
2021/06/20 10:52:41;;;;;;;16.35;2.00;;;;;;;30.94;35.71;100625.48;1731872;82;21224;-59
2021/06/20 10:56:03;;;;;;;7.75;1.37;;;;;;;30.98;36.87;100633.64;1740121;82;21275;-59
2021/06/20 10:59:11;;;;;;;7.60;1.42;;;;;;;31.04;35.29;100621.66;1740275;82;21413;-58
2021/06/20 11:02:32;;;;;;;5.78;1.40;;;;;;;31.09;35.34;100617.35;1750986;80;21220;-59
2021/06/20 11:05:38;;;;;;;5.72;1.07;;;;;;;31.03;34.47;100610.09;1693426;81;21741;-58
2021/06/20 11:08:52;;;;;;;6.28;1.40;;;;;;;30.91;34.56;100604.02;1730818;83;21363;-58
2021/06/20 11:12:05;;;;;;;7.35;1.40;;;;;;;30.90;35.72;100608.02;1729794;82;21169;-58
2021/06/20 11:15:12;;;;;;;6.35;1.30;;;;;;;30.96;36.16;100616.13;1747245;81;21236;-58
2021/06/20 11:18:17;;;;;;;4.25;1.40;;;;;;;30.94;35.18;100610.52;1745641;80;21248;-59
2021/06/20 11:21:21;;;;;;;4.05;1.00;;;;;;;30.80;35.06;100609.00;1743162;80;21427;-59
2021/06/20 11:24:31;;;;;;;7.67;1.50;;;;;;;30.76;35.81;100614.12;1751554;80;21911;-58
2021/06/20 11:27:36;;;;;;;7.40;1.57;;;;;;;30.70;35.44;100611.91;1775947;81;21343;-59
2021/06/20 11:30:41;;;;;;;8.35;1.67;;;;;;;30.71;36.64;100613.62;1732103;81;21748;-58
2021/06/20 11:33:46;;;;;;;12.37;2.08;;;;;;;30.84;37.04;100607.26;1720711;82;21819;-59
2021/06/20 11:36:53;;;;;;;4.28;1.30;;;;;;;30.87;35.61;100610.04;1738164;82;21208;-59
2021/06/20 11:40:06;;;;;;;5.45;1.82;;;;;;;30.84;34.51;100612.91;1717095;83;22021;-58
2021/06/20 11:43:13;;;;;;;8.50;1.50;;;;;;;30.81;35.53;100611.27;1706858;82;21194;-58
2021/06/20 11:46:26;;;;;;;9.40;1.40;;;;;;;30.80;36.12;100625.96;1703282;83;21375;-59
2021/06/20 11:49:31;;;;;;;6.55;1.45;;;;;;;30.84;35.55;100631.30;1714896;83;21766;-58
2021/06/20 11:52:37;;;;;;;9.60;1.92;;;;;;;30.88;35.29;100621.61;1715230;83;21206;-59
2021/06/20 11:55:47;;;;;;;4.67;1.40;;;;;;;31.07;34.55;100612.56;1713512;83;21209;-59
2021/06/20 11:58:55;;;;;;;6.00;1.20;;;;;;;31.16;34.21;100619.23;1714720;83;21164;-58
2021/06/20 12:02:00;;;;;;;5.97;1.45;;;;;;;31.07;34.20;100608.31;1719681;83;21334;-59
2021/06/20 12:05:06;;;;;;;6.78;1.40;;;;;;;31.10;35.17;100607.14;1719489;83;21377;-58
2021/06/20 12:08:13;;;;;;;6.42;1.40;;;;;;;31.15;34.95;100600.56;1719658;83;21646;-58
2021/06/20 12:11:18;;;;;;;5.30;1.27;;;;;;;31.22;35.61;100606.69;1719475;83;21380;-59
2021/06/20 12:14:31;;;;;;;3.85;1.00;;;;;;;31.23;34.67;100610.63;1719558;83;21847;-57
2021/06/20 12:17:36;;;;;;;5.72;1.10;;;;;;;31.23;34.11;100587.14;1702234;83;21364;-58
2021/06/20 12:20:44;;;;;;;6.17;1.52;;;;;;;31.15;34.53;100564.63;1715852;83;21898;-58
2021/06/20 12:23:49;;;;;;;3.05;1.42;;;;;;;31.14;35.44;100581.91;1716009;83;21935;-58
2021/06/20 12:27:01;;;;;;;6.35;1.55;;;;;;;31.13;36.60;100607.94;1714821;83;21822;-57
2021/06/20 12:30:06;;;;;;;4.92;1.20;;;;;;;31.03;36.13;100594.53;1715122;82;21377;-58
2021/06/20 12:33:16;;;;;;;9.55;1.42;;;;;;;30.84;35.76;100570.50;1706537;83;21371;-57
2021/06/20 12:36:22;;;;;;;7.62;1.45;;;;;;;30.68;36.44;100563.34;1714756;83;21387;-58
2021/06/20 12:39:28;;;;;;;5.65;1.40;;;;;;;30.60;36.39;100552.70;1674254;83;21336;-57
2021/06/20 12:42:33;;;;;;;7.22;1.77;;;;;;;30.70;36.22;100571.52;1733559;81;21262;-58
2021/06/20 12:45:42;;;;;;;6.40;1.60;;;;;;;30.91;36.81;100569.53;1758210;81;21249;-58
2021/06/20 12:48:49;;;;;;;7.20;1.15;;;;;;;31.18;36.68;100556.09;1757107;81;21184;-58
2021/06/20 12:51:54;;;;;;;6.62;1.20;;;;;;;31.26;35.80;100559.08;1757869;81;21207;-58
2021/06/20 12:54:59;;;;;;;4.12;1.02;;;;;;;31.30;35.59;100570.62;1757856;81;21279;-57
2021/06/20 12:58:09;;;;;;;2.75;1.05;;;;;;;31.29;35.00;100579.68;1757918;81;21266;-58
2021/06/20 13:01:16;;;;;;;2.58;1.02;;;;;;;31.19;34.74;100587.50;1761834;81;21758;-58
2021/06/20 13:04:22;;;;;;;11.00;1.10;;;;;;;31.12;35.23;100578.55;1731956;82;21786;-58
2021/06/20 13:07:47;;;;;;;3.75;0.90;;;;;;;30.92;35.61;100549.17;1772075;81;21361;-59
2021/06/20 13:10:54;;;;;;;8.08;1.70;;;;;;;30.58;36.37;100520.51;1772212;81;21372;-60
2021/06/20 13:13:59;;;;;;;8.90;1.57;;;;;;;30.12;37.04;100508.09;1736179;82;21204;-60
2021/06/20 13:17:05;;;;;;;8.60;1.40;;;;;;;29.80;37.11;100505.09;1756270;81;21616;-59
2021/06/20 13:20:11;;;;;;;5.17;1.40;;;;;;;29.39;38.58;100488.28;1726941;83;21283;-58
2021/06/20 13:23:16;;;;;;;7.40;1.22;;;;;;;29.39;38.58;100488.28;1727341;83;21262;-60
2021/06/20 13:26:21;;;;;;;8.95;1.55;;;;;;;29.21;39.15;100483.36;1727710;83;21291;-60
2021/06/20 13:29:26;;;;;;;4.00;1.40;;;;;;;28.98;40.42;100527.80;1728075;83;21255;-59
2021/06/20 13:32:31;;;;;;;6.53;1.45;;;;;;;28.86;41.22;100548.48;1728518;83;21270;-60
2021/06/20 13:35:36;;;;;;;7.70;1.30;;;;;;;28.77;42.40;100558.67;1728316;83;21262;-60
2021/06/20 13:38:41;;;;;;;3.72;1.40;;;;;;;28.73;42.80;100556.17;1728464;83;21759;-59
2021/06/20 13:41:46;;;;;;;5.47;2.00;;;;;;;28.72;42.69;100536.14;1728319;83;21195;-57
2021/06/20 13:44:51;;;;;;;13.43;2.02;;;;;;;28.72;42.85;100538.41;1708914;81;21889;-58
2021/06/20 13:47:57;;;;;;;6.00;1.67;;;;;;;28.73;43.87;100536.44;1702251;84;21217;-57
2021/06/20 13:51:02;;;;;;;4.50;1.50;;;;;;;28.85;44.63;100520.00;1713905;81;21224;-58
2021/06/20 13:54:07;;;;;;;11.85;2.10;;;;;;;28.93;43.27;100510.92;1702464;84;21748;-58
2021/06/20 13:57:14;;;;;;;5.95;1.42;;;;;;;28.93;43.17;100513.73;1702586;84;21283;-59
2021/06/20 14:00:22;;;;;;;4.72;1.42;;;;;;;28.97;42.95;100494.53;1702829;84;21907;-58
2021/06/20 14:03:28;;;;;;;5.85;2.12;;;;;;;29.04;42.41;100480.95;1703686;84;21244;-58
2021/06/20 14:06:34;;;;;;;4.92;1.20;;;;;;;29.00;41.77;100475.61;1703080;84;21383;-58
2021/06/20 14:09:39;;;;;;;6.22;1.22;;;;;;;29.03;42.38;100490.53;1703405;84;21382;-59
2021/06/20 14:12:48;;;;;;;4.28;1.40;;;;;;;29.12;42.88;100496.42;1702728;84;21750;-58
2021/06/20 14:15:54;;;;;;;5.35;1.40;;;;;;;29.10;42.14;100512.78;1711975;83;21382;-58
2021/06/20 14:18:59;;;;;;;7.33;1.50;;;;;;;29.01;42.48;100513.12;1703857;82;21216;-56
2021/06/20 14:22:04;;;;;;;6.40;1.15;;;;;;;28.89;42.68;100501.38;1702356;84;21359;-58
2021/06/20 14:25:12;;;;;;;5.72;1.27;;;;;;;28.85;42.85;100498.30;1702959;84;21251;-58